Stunt Ranch Reserve, Santa Monica Mtns, California Weather observations

Data are for 10 minute period ending at time listed.
 Day   Time   Solar   Ave.   Ave.  Ave.  Vector  Max.   Baro.   Total    
  of    of     Rad.   Air    Rel.  Wind   Wind   Wind  Press.  Precip.   
Year   Day            Temp.  Hum.  Speed  Dir.   Gust                    
2015   (PST)  Kw/m2    F      %     mph   deg.    mph    mb.     in.     
-------------------------------------------------------------------------
 142    0:10   0.00   51.9    81    1.5   165     2.5   968.2    0.00 
 142    0:20   0.00   52.1    80    1.3   163     2.3   968.2    0.00 
 142    0:30   0.00   52.1    80    1.4   160     2.2   968.2    0.00 
 142    0:40   0.00   51.8    81    1.5   160     2.3   968.2    0.00 
 142    0:50   0.00   51.7    81    1.7   152     3.0   968.2    0.00 
 142    1:00   0.00   51.6    81    1.9   161     2.9   968.2    0.00 
 142    1:10   0.00   51.5    81    2.1   184     3.1   968.2    0.00 
 142    1:20   0.00   51.4    82    2.8   172     3.9   968.2    0.00 
 142    1:30   0.00   51.5    81    2.5   149     4.3   967.8    0.00 
 142    1:40   0.00   52.0    80    0.0   268     0.8   967.8    0.00 
 142    1:50   0.00   52.4    79    0.8   266     2.0   967.8    0.00 
 142    2:00   0.00   52.4    80    0.0   185     0.1   967.8    0.00 
 142    2:10   0.00   52.4    80    0.9   281     2.9   967.8    0.00 
 142    2:20   0.00   52.1    81    1.1   246     1.8   967.8    0.00 
 142    2:30   0.00   51.8    82    0.7   115     1.7   967.8    0.00 
 142    2:40   0.00   51.8    82    0.4   167     1.2   967.8    0.00 
 142    2:50   0.00   51.9    82    0.6   305     1.8   968.2    0.00 
 142    3:00   0.00   51.7    82    0.3   264     1.5   968.2    0.00 
 142    3:10   0.00   51.7    82    0.9   255     2.3   968.2    0.00 
 142    3:20   0.00   51.7    82    1.9   240     3.3   968.2    0.00 
 142    3:30   0.00   51.7    82    1.9   217     2.9   968.2    0.00 
 142    3:40   0.00   51.7    82    2.3   249     5.0   968.2    0.00 
 142    3:50   0.00   51.9    83    1.4   265     3.5   968.2    0.00 
 142    4:00   0.00   51.7    83    1.2   260     2.6   968.2    0.00 
 142    4:10   0.00   51.5    84    1.4   214     2.1   968.2    0.00 
 142    4:20   0.00   51.0    85    2.1   190     3.2   968.2    0.00 
 142    4:30   0.00   50.6    86    1.9   184     3.4   968.2    0.00 
 142    4:40   0.00   50.3    86    1.7   183     3.0   968.2    0.00 
 142    4:50   0.00   50.5    85    1.3   186     2.4   968.2    0.00 
 142    5:00   0.00   50.9    84    1.3   179     2.4   968.2    0.00 
 142    5:10   0.01   51.3    83    0.8   196     1.9   968.2    0.00 
 142    5:20   0.01   51.5    82    0.2   294     1.7   968.2    0.00 
 142    5:30   0.01   51.6    82    0.9   264     2.0   968.2    0.00 
 142    5:40   0.03   51.8    83    0.1   230     0.7   968.5    0.00 
 142    5:50   0.05   52.1    83    0.9   149     1.8   968.5    0.00 
 142    6:00   0.06   52.4    82    0.1   147     0.9   968.5    0.00 
 142    6:10   0.07   53.0    80    0.4   329     2.0   968.5    0.00 
 142    6:20   0.09   53.5    79    0.7   351     2.3   968.5    0.00 
 142    6:30   0.12   53.9    77    0.7    94     1.5   968.5    0.00 
 142    6:40   0.07   54.2    77    1.0   302     2.3   968.8    0.00 
 142    6:50   0.12   54.0    77    1.1   264     2.2   969.2    0.00 
 142    7:00   0.36   55.7    74    0.9   320     3.1   969.2    0.00 
 142    7:10   0.35   57.5    69    1.8   336     4.5   969.2    0.00 
 142    7:20   0.30   57.3    69    1.4   321     3.9   969.2    0.00 
 142    7:30   0.35   58.2    66    1.7   302     3.4   969.5    0.00 
 142    7:40   0.53   59.7    60    2.0   298     4.3   969.5    0.00 
 142    7:50   0.36   59.7    58    1.7   323     3.2   969.5    0.00 
 142    8:00   0.56   60.4    57    2.7   326     5.9   969.5    0.00 
 142    8:10   0.47   63.1    53    2.3   284     5.9   969.5    0.00 
 142    8:20   0.22   61.1    56    2.0   313     5.6   969.5    0.00 
 142    8:30   0.66   61.2    56    2.3   311     5.6   969.5    0.00 
 142    8:40   0.87   64.5    51    3.4   335     7.5   969.5    0.00 
 142    8:50   0.77   66.8    48    3.4   292     7.7   969.5    0.00 
 142    9:00   0.43   65.7    49    2.8   287     6.9   969.5    0.00 
 142    9:10   0.26   62.5    52    2.7   252     5.9   969.2    0.00 
 142    9:20   0.20   61.2    54    2.1   290     5.3   969.2    0.00 
 142    9:30   0.25   60.9    52    2.2   261     4.5   969.5    0.00 
 142    9:40   0.24   61.3    52    2.5   279     6.5   969.5    0.00 
 142    9:50   0.29   61.3    53    3.0   292     5.9   969.5    0.00 
 142   10:00   0.31   62.5    51    2.2   282     5.3   969.5    0.00 
 142   10:10   0.30   62.7    56    2.6   284     7.4   969.9    0.00 
 142   10:20   0.38   64.1    53    1.4   308     6.1   969.9    0.00 
 142   10:30   0.27   63.2    57    2.2    95     6.1   969.9    0.00 
 142   10:40   0.25   61.2    61    2.4   140     5.6   969.9    0.00 
 142   10:50   0.23   60.1    65    4.8   160    10.7   969.9    0.00 
 142   11:00   0.62   61.1    63    6.4   141    10.9   969.9    0.00 
 142   11:10   0.59   61.8    61    5.8   155    11.8   969.9    0.00 
 142   11:20   0.53   62.1    59    7.8   134    13.2   969.9    0.00 
 142   11:30   0.26   60.9    61    5.7   149    10.0   969.9    0.00 
 142   11:40   0.28   61.3    60    3.5   150     8.6   969.9    0.00 
 142   11:50   0.30   60.8    61    7.5   140    12.9   969.5    0.00 
 142   12:00   0.31   61.4    60    4.9   134    10.1   969.5    0.00 
 142   12:10   0.30   61.3    59    7.3   136    12.0   969.5    0.00 
 142   12:20   0.54   61.8    56    6.3   161    12.5   969.9    0.00 
 142   12:30   0.98   64.2    52    7.8   144    15.3   969.5    0.00 
 142   12:40   0.33   63.2    54    6.3   152    11.0   969.5    0.00 
 142   12:50   0.31   62.3    55    4.1   167    10.1   969.5    0.00 
 142   13:00   0.30   62.0    56    3.4   162     9.8   969.5    0.00 
 142   13:10   100.00  99999.0   99999  99999.0   99999   99999.0   99999.0   99999.00 
 142   13:20   100.00  99999.0   99999  99999.0   99999   99999.0   99999.0   99999.00 
 142   13:30   100.00  99999.0   99999  99999.0   99999   99999.0   99999.0   99999.00 
 142   13:40   100.00  99999.0   99999  99999.0   99999   99999.0   99999.0   99999.00 
 142   13:50   100.00  99999.0   99999  99999.0   99999   99999.0   99999.0   99999.00 
 142   14:00   100.00  99999.0   99999  99999.0   99999   99999.0   99999.0   99999.00 
 142   14:10   0.49   63.0    58    3.7   203    10.7   969.2    0.00 
 142   14:20   0.95   66.1    53    3.2   246    10.1   969.2    0.00 
 142   14:30   0.59   67.6    52    3.1   303     9.2   969.2    0.00 
 142   14:40   0.38   67.4    52    2.8   285     7.7   968.8    0.00 
 142   14:50   0.23   64.0    58    3.3   208     9.1   968.8    0.00 
 142   15:00   0.15   62.4    59    3.2   192     8.3   969.2    0.00 
 142   15:10   0.14   61.8    60    2.5   194     5.4   969.2    0.00 
 142   15:20   0.13   61.9    59    2.4   191     5.5   969.2    0.00 
 142   15:30   0.14   61.7    58    2.6   182     9.1   969.2    0.00 
 142   15:40   0.11   61.1    61    1.1   148     3.9   969.5    0.00 
 142   15:50   0.13   60.7    58    4.1   153     9.6   969.5    0.00 
 142   16:00   0.13   60.9    54    3.2   170     8.9   969.5    0.00 
 142   16:10   0.16   61.0    57    4.8   148    11.1   969.5    0.00 
 142   16:20   0.13   61.1    61    3.9   152     8.8   969.5    0.00 
 142   16:30   0.11   61.0    62    1.9    27     6.0   969.5    0.00 
 142   16:40   0.11   61.7    61    1.8   309     7.2   969.5    0.00 
 142   16:50   0.10   61.6    61    2.0   216     6.2   969.5    0.00 
 142   17:00   0.08   61.2    62    1.7   326     4.1   969.5    0.00 
 142   17:10   0.07   61.1    61    1.4   289     4.4   969.5    0.00 
 142   17:20   0.08   61.5    59    1.9   323     4.8   969.5    0.00 
 142   17:30   0.08   62.0    58    0.6   328     2.3   969.5    0.00 
 142   17:40   0.05   61.5    60    1.6   348     3.9   969.5    0.00 
 142   17:50   0.05   61.2    61    0.3   334     1.9   969.9    0.00 
 142   18:00   0.03   61.3    63    1.4   297     3.7   969.9    0.00 
 142   18:10   0.03   60.9    64    0.6   331     2.8   969.9    0.00 
 142   18:20   0.02   60.4    65    0.7   304     2.7   970.2    0.00 
 142   18:30   0.01   60.3    66    0.2   296     1.7   970.2    0.00 
 142   18:40   0.01   60.2    66    1.1   286     3.5   970.2    0.00 
 142   18:50   0.01   60.0    66    0.6   284     3.4   970.5    0.00 
 142   19:00   0.00   59.7    67    0.3   277     2.3   970.5    0.00 
 142   19:10   0.00   59.5    68    0.8   284     2.5   970.9    0.00 
 142   19:20   0.00   59.1    69    0.4   297     3.9   970.9    0.00 
 142   19:30   0.00   58.8    69    1.2   308     5.0   970.9    0.00 
 142   19:40   0.00   58.4    69    1.4   296     5.6   970.9    0.00 
 142   19:50   0.00   58.2    70    0.7   293     4.1   970.9    0.00 
 142   20:00   0.00   57.9    71    0.8   304     4.0   971.2    0.00 
 142   20:10   0.00   57.6    72    0.5   283     2.6   971.2    0.00 
 142   20:20   0.00   57.5    72    0.7   285     3.9   971.2    0.00 
 142   20:30   0.00   57.2    73    1.1   290     4.5   971.2    0.00 
 142   20:40   0.00   57.0    74    1.4   284     3.0   971.2    0.00 
 142   20:50   0.00   56.8    74    2.0   280     4.5   971.6    0.00 
 142   21:00   0.00   56.5    76    1.4   239     3.3   971.6    0.00 
 142   21:10   0.00   56.3    77    0.7   304     2.0   971.6    0.00 
 142   21:20   0.00   56.0    78    0.4   307     1.3   971.6    0.00 
 142   21:30   0.00   55.7    78    0.4   264     1.3   971.6    0.00 
 142   21:40   0.00   55.5    79    0.8   116     1.7   971.6    0.00 
 142   21:50   0.00   55.5    79    0.2   139     1.3   971.6    0.00 
 142   22:00   0.00   55.6    79    0.0     0     0.0   971.6    0.00 
 142   22:10   0.00   55.5    79    0.4   189     1.8   971.6    0.00 
 142   22:20   0.00   55.3    80    1.3   276     2.8   971.2    0.00 
 142   22:30   0.00   54.8    80    1.1   269     3.8   971.2    0.00 
 142   22:40   0.00   54.7    81    0.4   240     1.6   971.2    0.00 
 142   22:50   0.00   54.6    81    0.8   192     2.0   971.2    0.00 
 142   23:00   0.00   54.3    82    1.5   211     2.4   971.2    0.00 
 142   23:10   0.00   53.5    83    0.8   254     2.0   971.2    0.00 
 142   23:20   0.00   52.8    85    1.4   225     2.6   971.2    0.00 
 142   23:30   0.00   52.5    85    0.7   217     2.3   970.9    0.00 
 142   23:40   0.00   51.9    86    1.7   188     2.9   970.9    0.00 
 142   23:50   0.00   51.8    87    1.5   234     2.4   970.9    0.00 
 143    0:00   0.00   51.6    86    2.0   215     3.3   970.9    0.00 

Return to Stunt Ranch Reserve graphs page.


Western Regional Climate Center,wrcc@dri.edu